createdAt,value
2022-10-29T00:01:47.215Z,8.93
2022-10-29T00:04:20.457Z,13.27
2022-10-29T00:09:23.150Z,11.30
2022-10-29T00:11:55.130Z,10.77
2022-10-29T00:14:24.114Z,10.07
2022-10-29T00:16:53.246Z,16.20
2022-10-29T00:19:23.191Z,11.07
2022-10-29T00:21:51.822Z,13.90
2022-10-29T00:24:20.301Z,11.97
2022-10-29T00:26:52.237Z,10.73
2022-10-29T00:29:21.117Z,12.07
2022-10-29T00:31:51.851Z,9.27
2022-10-29T00:34:24.386Z,12.50
2022-10-29T00:36:54.180Z,10.43
2022-10-29T00:39:22.893Z,12.13
2022-10-29T00:41:52.867Z,13.40
2022-10-29T00:44:30.155Z,10.13
2022-10-29T00:47:03.778Z,12.57
2022-10-29T00:49:35.124Z,10.53
2022-10-29T00:52:07.991Z,11.23
2022-10-29T00:54:42.696Z,11.07
2022-10-29T00:57:15.125Z,12.37
2022-10-29T01:02:23.742Z,15.57
2022-10-29T01:04:58.470Z,10.63
2022-10-29T01:07:28.982Z,10.93
2022-10-29T01:09:58.132Z,13.53
2022-10-29T01:12:42.145Z,13.43
2022-10-29T01:15:18.097Z,13.00
2022-10-29T01:17:56.325Z,10.73
2022-10-29T01:21:01.126Z,11.33
2022-10-29T01:24:01.354Z,9.43
2022-10-29T01:27:02.165Z,15.93
2022-10-29T01:29:46.218Z,10.20
2022-10-29T01:32:19.659Z,9.30
2022-10-29T01:34:56.272Z,12.30
2022-10-29T01:37:33.510Z,10.83
2022-10-29T01:40:10.570Z,10.57
2022-10-29T01:42:40.944Z,11.00
2022-10-29T01:45:17.417Z,11.70
2022-10-29T01:47:52.501Z,10.13
2022-10-29T01:50:26.507Z,13.10
2022-10-29T01:52:56.014Z,9.33
2022-10-29T01:55:33.109Z,11.73
2022-10-29T01:58:01.888Z,8.70
2022-10-29T02:00:34.395Z,9.73
2022-10-29T02:03:21.169Z,11.30
2022-10-29T02:05:59.186Z,10.17
2022-10-29T02:08:37.704Z,11.67
2022-10-29T02:11:13.256Z,9.33
2022-10-29T02:13:46.832Z,12.73
2022-10-29T02:16:20.548Z,12.67
2022-10-29T02:18:51.349Z,9.83
2022-10-29T02:21:20.721Z,11.40
2022-10-29T02:23:50.010Z,11.73
2022-10-29T02:26:22.662Z,10.13
2022-10-29T02:28:50.978Z,11.10
2022-10-29T02:31:19.213Z,9.97
2022-10-29T02:33:48.021Z,11.37
2022-10-29T02:36:17.581Z,10.97
2022-10-29T02:41:38.201Z,11.37
2022-10-29T02:44:07.016Z,9.83
2022-10-29T02:46:36.094Z,10.00
2022-10-29T02:49:06.517Z,10.23
2022-10-29T02:51:36.192Z,9.00
2022-10-29T02:54:05.195Z,9.93
2022-10-29T02:56:34.218Z,12.50
2022-10-29T02:59:04.261Z,11.97
2022-10-29T03:01:35.170Z,10.93
2022-10-29T03:04:03.882Z,9.03
2022-10-29T03:06:32.179Z,10.87
2022-10-29T03:09:02.295Z,10.00
2022-10-29T03:11:31.040Z,10.33
2022-10-29T03:14:02.571Z,8.20
2022-10-29T03:16:30.685Z,10.43
2022-10-29T03:19:00.069Z,9.50
2022-10-29T03:21:29.216Z,10.67
2022-10-29T03:23:58.001Z,10.57
2022-10-29T03:26:30.429Z,11.07
2022-10-29T03:28:59.057Z,9.07
2022-10-29T03:31:28.258Z,8.63
2022-10-29T03:33:56.440Z,10.73
2022-10-29T03:36:25.289Z,11.10
2022-10-29T03:38:57.382Z,10.93
2022-10-29T03:41:27.208Z,10.53
2022-10-29T03:46:32.534Z,10.30
2022-10-29T03:49:01.062Z,10.73
2022-10-29T03:51:30.234Z,12.33
2022-10-29T03:53:59.232Z,8.20
2022-10-29T03:56:29.245Z,9.13
2022-10-29T03:59:00.132Z,10.17
2022-10-29T04:01:29.295Z,7.87
2022-10-29T04:03:57.498Z,11.63
2022-10-29T04:06:25.954Z,8.53
2022-10-29T04:08:54.102Z,11.10
2022-10-29T04:11:23.519Z,11.00
2022-10-29T04:13:56.077Z,9.70
2022-10-29T04:16:25.311Z,11.07
2022-10-29T04:18:53.502Z,8.53
2022-10-29T04:29:49.943Z,9.07
2022-10-29T04:32:19.102Z,10.30
2022-10-29T04:34:48.302Z,8.03
2022-10-29T04:37:16.378Z,10.50
2022-10-29T04:39:44.580Z,8.70
2022-10-29T04:42:16.528Z,6.90
2022-10-29T04:44:44.743Z,8.50
2022-10-29T04:47:14.209Z,9.57
2022-10-29T04:49:43.250Z,9.83
2022-10-29T04:52:11.325Z,10.07
2022-10-29T04:54:43.357Z,10.83
2022-10-29T04:57:12.241Z,11.77
2022-10-29T04:59:40.417Z,8.97
2022-10-29T05:02:09.081Z,9.70
2022-10-29T05:04:39.338Z,9.63
2022-10-29T05:07:11.325Z,11.03
2022-10-29T05:09:40.241Z,7.97
2022-10-29T05:12:10.152Z,7.80
2022-10-29T05:14:39.273Z,8.47
2022-10-29T05:19:42.449Z,10.13
2022-10-29T05:22:11.410Z,8.30
2022-10-29T05:24:40.377Z,10.73
2022-10-29T05:27:09.290Z,9.67
2022-10-29T05:29:41.173Z,9.33
2022-10-29T05:32:10.937Z,7.17
2022-10-29T05:34:42.002Z,11.10
2022-10-29T05:37:13.794Z,10.23
2022-10-29T05:39:42.578Z,9.53
2022-10-29T05:42:10.640Z,10.73
2022-10-29T05:44:39.379Z,9.27
2022-10-29T05:47:07.726Z,8.43
2022-10-29T05:49:36.341Z,7.33
2022-10-29T05:52:05.149Z,7.57
2022-10-29T05:54:38.653Z,10.27
2022-10-29T05:57:07.166Z,8.43
2022-10-29T05:59:35.223Z,8.50
2022-10-29T06:02:03.443Z,12.07
2022-10-29T06:04:31.998Z,10.23
2022-10-29T06:07:00.164Z,10.60
2022-10-29T06:09:31.554Z,8.13
2022-10-29T06:12:01.156Z,9.57
2022-10-29T06:14:30.374Z,11.03
2022-10-29T06:16:59.135Z,11.40
2022-10-29T06:19:28.349Z,10.00
2022-10-29T06:22:02.412Z,11.03
2022-10-29T06:24:30.589Z,9.90
2022-10-29T06:27:00.306Z,13.80
2022-10-29T06:29:29.179Z,8.10
2022-10-29T06:32:01.624Z,9.53
2022-10-29T06:34:29.776Z,9.57
2022-10-29T06:36:57.942Z,11.47
2022-10-29T06:39:26.317Z,11.10
2022-10-29T06:41:54.450Z,7.20
2022-10-29T06:44:24.166Z,11.23
2022-10-29T06:46:55.204Z,12.63
2022-10-29T06:49:23.427Z,9.90
2022-10-29T06:51:51.561Z,12.67
2022-10-29T06:54:19.979Z,8.77
2022-10-29T06:56:48.069Z,9.13
2022-10-29T06:59:17.115Z,10.50
2022-10-29T07:01:46.768Z,11.67
2022-10-29T07:04:18.553Z,12.03
2022-10-29T07:06:46.887Z,10.73
2022-10-29T07:09:15.068Z,9.07
2022-10-29T07:11:43.357Z,12.27
2022-10-29T07:14:12.321Z,8.33
2022-10-29T07:16:44.322Z,12.30
2022-10-29T07:19:16.095Z,12.70
2022-10-29T07:21:44.693Z,11.73
2022-10-29T07:24:12.903Z,10.27
2022-10-29T07:26:41.069Z,10.97
2022-10-29T07:29:12.258Z,12.00
2022-10-29T07:31:44.018Z,8.73
2022-10-29T07:34:13.669Z,9.23
2022-10-29T07:36:41.776Z,9.77
2022-10-29T07:39:10.034Z,11.13
2022-10-29T07:41:41.746Z,8.43
2022-10-29T07:44:12.249Z,9.43
2022-10-29T07:46:41.355Z,15.50
2022-10-29T07:49:09.620Z,13.57
2022-10-29T07:51:40.178Z,13.67
2022-10-29T07:54:14.747Z,11.97
2022-10-29T07:56:46.717Z,17.70
2022-10-29T07:59:20.571Z,12.47
2022-10-29T08:01:49.058Z,10.63
2022-10-29T08:04:18.381Z,11.77
2022-10-29T08:06:48.460Z,13.03
2022-10-29T08:09:17.039Z,13.03
2022-10-29T08:14:20.344Z,9.50
2022-10-29T08:16:53.579Z,15.53
2022-10-29T08:19:25.490Z,14.07
2022-10-29T08:21:55.366Z,8.53
2022-10-29T08:24:24.437Z,11.67
2022-10-29T08:26:53.238Z,10.00
2022-10-29T08:29:22.082Z,10.55
2022-10-29T08:31:53.366Z,12.73
2022-10-29T08:34:21.540Z,14.57
2022-10-29T08:36:50.359Z,15.00
2022-10-29T08:39:20.671Z,10.67
2022-10-29T08:41:59.400Z,11.85
2022-10-29T08:44:52.383Z,9.17
2022-10-29T08:47:22.343Z,10.30
2022-10-29T08:50:02.562Z,9.75
2022-10-29T08:52:35.272Z,14.80
2022-10-29T08:55:09.222Z,13.47
2022-10-29T08:57:44.373Z,18.52
2022-10-29T09:00:17.436Z,13.93
2022-10-29T09:02:45.980Z,15.45
2022-10-29T09:05:16.236Z,13.35
2022-10-29T09:07:58.425Z,10.55
2022-10-29T09:10:41.339Z,14.10
2022-10-29T09:13:42.266Z,11.48
2022-10-29T09:16:25.519Z,11.68
2022-10-29T09:19:14.260Z,12.93
2022-10-29T09:21:53.546Z,11.35
2022-10-29T09:24:31.232Z,15.40
2022-10-29T09:27:06.631Z,14.48
2022-10-29T09:29:54.948Z,9.88
2022-10-29T09:32:27.276Z,16.73
2022-10-29T09:35:02.475Z,14.77
2022-10-29T09:37:39.414Z,13.90
2022-10-29T09:40:28.574Z,11.40
2022-10-29T09:43:00.410Z,13.60
2022-10-29T09:45:41.683Z,14.02
2022-10-29T09:48:19.309Z,14.30
2022-10-29T09:50:59.406Z,14.88
2022-10-29T09:53:28.154Z,15.90
2022-10-29T09:55:57.419Z,18.85
2022-10-29T09:58:29.284Z,15.32
2022-10-29T10:01:01.521Z,12.10
2022-10-29T10:03:35.273Z,17.92
2022-10-29T10:06:08.385Z,15.77
2022-10-29T10:08:57.518Z,15.93
2022-10-29T10:11:26.430Z,19.20
2022-10-29T10:14:00.485Z,16.40
2022-10-29T10:16:30.622Z,22.00
2022-10-29T10:18:59.247Z,20.17
2022-10-29T10:21:32.710Z,22.05
2022-10-29T10:24:02.450Z,16.92
2022-10-29T10:26:39.514Z,19.63
2022-10-29T10:29:16.153Z,22.65
2022-10-29T10:31:45.682Z,22.48
2022-10-29T10:34:23.984Z,18.65
2022-10-29T10:36:55.687Z,23.40
2022-10-29T10:39:32.250Z,22.90
2022-10-29T10:42:05.539Z,22.65
2022-10-29T10:44:39.271Z,24.13
2022-10-29T10:47:12.513Z,25.02
2022-10-29T10:49:41.040Z,29.92
2022-10-29T10:52:18.438Z,26.75
2022-10-29T10:54:56.418Z,24.30
2022-10-29T10:57:30.577Z,27.05
2022-10-29T11:00:05.311Z,23.77
2022-10-29T11:02:45.170Z,25.90
2022-10-29T11:05:18.887Z,21.02
2022-10-29T11:07:54.660Z,21.60
2022-10-29T11:10:29.498Z,19.00
2022-10-29T11:13:02.136Z,18.92
2022-10-29T11:15:40.230Z,19.08
2022-10-29T11:21:05.442Z,17.63
2022-10-29T11:23:43.325Z,15.00
2022-10-29T11:26:17.610Z,21.45
2022-10-29T11:28:52.318Z,12.80
2022-10-29T11:31:28.513Z,16.95
2022-10-29T11:34:06.395Z,13.25
2022-10-29T11:36:44.702Z,14.35
2022-10-29T11:39:21.465Z,12.75
2022-10-29T11:41:55.573Z,14.55
2022-10-29T11:44:25.424Z,13.52
2022-10-29T11:47:08.509Z,13.88
2022-10-29T11:49:56.795Z,10.35
2022-10-29T11:52:35.549Z,10.95
2022-10-29T11:55:18.502Z,11.63
2022-10-29T11:57:54.442Z,12.18
2022-10-29T12:00:27.587Z,14.93
2022-10-29T12:03:18.470Z,14.55
2022-10-29T12:05:59.498Z,14.13
2022-10-29T12:08:44.562Z,12.98
2022-10-29T12:11:21.582Z,13.70
2022-10-29T12:14:08.839Z,19.13
2022-10-29T12:16:48.532Z,9.95
2022-10-29T12:19:35.528Z,13.77
2022-10-29T12:22:13.209Z,14.23
2022-10-29T12:25:08.561Z,14.10
2022-10-29T12:27:44.528Z,13.27
2022-10-29T12:30:18.510Z,12.80
2022-10-29T12:32:55.630Z,13.75
2022-10-29T12:35:33.279Z,12.85
2022-10-29T12:38:25.822Z,15.57
2022-10-29T12:41:03.773Z,10.88
2022-10-29T12:43:36.539Z,11.35
2022-10-29T12:46:20.804Z,12.18
2022-10-29T12:48:59.195Z,10.90
2022-10-29T12:51:39.530Z,9.77
2022-10-29T12:54:30.537Z,10.05
2022-10-29T12:57:06.503Z,12.10
2022-10-29T12:59:38.502Z,11.35
2022-10-29T13:02:30.210Z,8.57
2022-10-29T13:05:16.357Z,11.52
2022-10-29T13:08:11.922Z,12.27
2022-10-29T13:10:54.230Z,6.93
2022-10-29T13:13:42.522Z,8.68
2022-10-29T13:16:17.733Z,9.55
2022-10-29T13:18:53.632Z,9.75
2022-10-29T13:21:54.384Z,10.23
2022-10-29T13:24:24.535Z,9.05
2022-10-29T13:27:02.481Z,8.27
2022-10-29T13:29:52.570Z,6.53
2022-10-29T13:32:36.071Z,9.18
2022-10-29T13:35:07.574Z,8.52
2022-10-29T13:37:54.578Z,11.23
2022-10-29T13:41:03.313Z,12.27
2022-10-29T13:43:35.097Z,10.18
2022-10-29T13:46:23.560Z,10.75
2022-10-29T13:48:53.580Z,11.80
2022-10-29T13:51:34.123Z,8.25
2022-10-29T13:54:11.637Z,10.75
2022-10-29T13:56:48.238Z,11.10
2022-10-29T13:59:24.686Z,9.43
2022-10-29T14:02:02.605Z,8.15
2022-10-29T14:04:37.186Z,11.05
2022-10-29T14:07:13.471Z,10.05
2022-10-29T14:09:47.605Z,9.50
2022-10-29T14:12:22.241Z,11.00
2022-10-29T14:15:01.447Z,10.10
2022-10-29T14:17:30.577Z,11.50
2022-10-29T14:19:58.923Z,10.93
2022-10-29T14:22:37.486Z,11.25
2022-10-29T14:25:28.018Z,9.25
2022-10-29T14:28:11.243Z,8.57
2022-10-29T14:30:41.576Z,7.47
2022-10-29T14:33:35.666Z,8.90
2022-10-29T14:36:10.525Z,8.18
2022-10-29T14:38:44.649Z,10.00
2022-10-29T14:41:13.394Z,8.23
2022-10-29T14:43:44.649Z,9.40
2022-10-29T14:46:25.420Z,11.55
2022-10-29T14:49:03.663Z,10.45
2022-10-29T14:51:41.545Z,9.02
2022-10-29T14:54:20.684Z,10.88
2022-10-29T14:56:53.077Z,10.10
2022-10-29T14:59:29.447Z,9.20
2022-10-29T15:02:17.211Z,11.83
2022-10-29T15:04:51.609Z,13.13
2022-10-29T15:07:31.497Z,10.00
2022-10-29T15:10:26.401Z,9.93
2022-10-29T15:12:55.403Z,11.47
2022-10-29T15:15:26.978Z,10.73
2022-10-29T15:18:00.832Z,9.60
2022-10-29T15:20:35.619Z,11.50
2022-10-29T15:23:05.626Z,10.13
2022-10-29T15:25:36.903Z,7.50
2022-10-29T15:28:09.990Z,10.27
2022-10-29T15:30:41.308Z,11.23
2022-10-29T15:33:18.910Z,7.80
2022-10-29T15:35:51.842Z,8.68
2022-10-29T15:39:22.965Z,9.07
2022-10-29T15:41:59.651Z,12.17
2022-10-29T15:44:36.220Z,8.67
2022-10-29T15:47:22.721Z,7.47
2022-10-29T15:49:52.389Z,8.87
2022-10-29T15:52:21.315Z,7.10
2022-10-29T15:54:53.824Z,13.27
2022-10-29T15:57:24.194Z,12.73
2022-10-29T15:59:59.146Z,10.80
2022-10-29T16:02:30.454Z,6.17
2022-10-29T16:05:00.645Z,13.53
2022-10-29T16:07:29.663Z,7.60
2022-10-29T16:10:00.617Z,10.60
2022-10-29T16:12:28.859Z,12.93
2022-10-29T16:14:59.703Z,11.43
2022-10-29T16:17:30.755Z,10.10
2022-10-29T16:20:07.631Z,9.87
2022-10-29T16:22:35.802Z,12.40
2022-10-29T16:25:03.985Z,9.47
2022-10-29T16:27:32.385Z,12.37
2022-10-29T16:30:00.468Z,9.10
2022-10-29T16:32:30.350Z,9.10
2022-10-29T16:34:59.203Z,15.40
2022-10-29T16:37:29.925Z,11.33
2022-10-29T16:39:58.281Z,10.70
2022-10-29T16:42:32.945Z,13.50
2022-10-29T16:45:01.094Z,11.83
2022-10-29T16:47:29.461Z,12.17
2022-10-29T16:49:57.925Z,11.97
2022-10-29T16:52:29.464Z,12.73
2022-10-29T16:55:00.379Z,11.33
2022-10-29T16:57:32.743Z,13.13
2022-10-29T17:00:01.727Z,11.37
2022-10-29T17:02:29.885Z,11.20
2022-10-29T17:04:58.152Z,12.20
2022-10-29T17:07:29.881Z,11.83
2022-10-29T17:09:59.769Z,11.50
2022-10-29T17:12:27.912Z,11.33
2022-10-29T17:14:56.108Z,10.27
2022-10-29T17:17:24.699Z,11.87
2022-10-29T17:19:56.563Z,13.40
2022-10-29T17:22:27.708Z,12.20
2022-10-29T17:24:56.657Z,10.97
2022-10-29T17:27:26.210Z,11.50
2022-10-29T17:29:54.436Z,11.33
2022-10-29T17:32:24.909Z,12.27
2022-10-29T17:34:55.723Z,15.63
2022-10-29T17:37:24.706Z,11.93
2022-10-29T17:39:53.755Z,11.83
2022-10-29T17:42:22.207Z,13.23
2022-10-29T17:44:51.689Z,13.00
2022-10-29T17:47:21.744Z,12.27
2022-10-29T17:49:50.131Z,11.47
2022-10-29T17:52:19.130Z,13.57
2022-10-29T17:54:47.287Z,12.40
2022-10-29T17:57:15.498Z,9.93
2022-10-29T17:59:43.768Z,10.93
2022-10-29T18:02:13.842Z,12.13
2022-10-29T18:04:42.216Z,10.33
2022-10-29T18:07:11.533Z,11.27
2022-10-29T18:09:40.739Z,11.10
2022-10-29T18:12:09.541Z,12.90
2022-10-29T18:14:37.671Z,11.63
2022-10-29T18:17:05.805Z,9.73
2022-10-29T18:19:38.348Z,17.53
2022-10-29T18:22:06.602Z,13.17
2022-10-29T18:24:34.789Z,14.87
2022-10-29T18:27:03.022Z,14.17
2022-10-29T18:29:31.344Z,11.17
2022-10-29T18:32:02.353Z,14.20
2022-10-29T18:34:31.728Z,13.97
2022-10-29T18:37:01.262Z,15.67
2022-10-29T18:39:29.720Z,15.93
2022-10-29T18:41:58.553Z,13.13
2022-10-29T18:44:30.845Z,12.33
2022-10-29T18:47:01.692Z,11.53
2022-10-29T18:49:29.926Z,16.53
2022-10-29T18:51:58.216Z,13.30
2022-10-29T18:54:27.997Z,12.83
2022-10-29T18:56:58.359Z,12.13
2022-10-29T18:59:29.308Z,11.40
2022-10-29T19:01:57.518Z,11.90
2022-10-29T19:04:25.945Z,12.17
2022-10-29T19:06:55.461Z,11.90
2022-10-29T19:09:30.401Z,13.10
2022-10-29T19:11:59.644Z,12.80
2022-10-29T19:14:27.973Z,12.10
2022-10-29T19:16:56.118Z,14.80
2022-10-29T19:19:27.403Z,14.17
2022-10-29T19:21:55.559Z,14.10
2022-10-29T19:24:23.734Z,13.63
2022-10-29T19:26:53.249Z,13.00
2022-10-29T19:29:21.545Z,17.10
2022-10-29T19:31:49.685Z,13.60
2022-10-29T19:34:18.034Z,13.10
2022-10-29T19:36:46.199Z,12.77
2022-10-29T19:39:16.583Z,15.27
2022-10-29T19:41:48.360Z,15.20
2022-10-29T19:44:17.948Z,12.07
2022-10-29T19:46:46.078Z,12.47
2022-10-29T19:49:14.237Z,13.23
2022-10-29T19:51:46.364Z,13.00
2022-10-29T19:54:17.268Z,13.07
2022-10-29T19:56:45.711Z,15.03
2022-10-29T19:59:14.467Z,13.33
2022-10-29T20:01:45.396Z,14.90
2022-10-29T20:04:13.997Z,13.83
2022-10-29T20:06:45.251Z,14.77
2022-10-29T20:09:13.407Z,18.17
2022-10-29T20:11:42.487Z,10.93
2022-10-29T20:14:10.647Z,13.00
2022-10-29T20:16:41.121Z,16.67
2022-10-29T20:19:11.666Z,16.03
2022-10-29T20:21:40.751Z,14.37
2022-10-29T20:24:09.220Z,12.40
2022-10-29T20:26:37.674Z,16.20
2022-10-29T20:29:09.561Z,14.87
2022-10-29T20:31:41.878Z,15.30
2022-10-29T20:34:15.201Z,14.43
2022-10-29T20:36:49.096Z,11.70
2022-10-29T20:39:20.237Z,14.87
2022-10-29T20:41:50.716Z,12.70
2022-10-29T20:44:19.848Z,14.30
2022-10-29T20:46:48.632Z,14.63
2022-10-29T20:49:18.118Z,13.13
2022-10-29T20:51:46.367Z,16.33
2022-10-29T20:54:14.816Z,12.93
2022-10-29T20:56:43.449Z,16.67
2022-10-29T20:59:12.760Z,13.50
2022-10-29T21:01:41.900Z,12.63
2022-10-29T21:04:14.539Z,15.73
2022-10-29T21:06:47.534Z,15.47
2022-10-29T21:09:15.779Z,15.73
2022-10-29T21:11:44.633Z,14.33
2022-10-29T21:14:15.136Z,16.67
2022-10-29T21:16:43.507Z,14.23
2022-10-29T21:19:11.914Z,17.60
2022-10-29T21:21:41.069Z,13.53
2022-10-29T21:24:11.802Z,16.87
2022-10-29T21:26:43.787Z,14.67
2022-10-29T21:29:15.209Z,16.03
2022-10-29T21:31:43.797Z,14.03
2022-10-29T21:34:12.804Z,15.17
2022-10-29T21:36:41.016Z,15.40
2022-10-29T21:39:14.618Z,17.53
2022-10-29T21:41:44.381Z,14.13
2022-10-29T21:44:12.811Z,15.60
2022-10-29T21:46:41.299Z,19.43
2022-10-29T21:49:09.847Z,16.20
2022-10-29T21:51:41.880Z,16.20
2022-10-29T21:54:12.590Z,22.70
2022-10-29T21:56:42.840Z,16.83
2022-10-29T21:59:11.183Z,14.93
2022-10-29T22:01:39.398Z,18.00
2022-10-29T22:04:09.886Z,16.23
2022-10-29T22:06:40.579Z,16.80
2022-10-29T22:09:10.061Z,19.60
2022-10-29T22:11:38.258Z,18.43
2022-10-29T22:14:07.868Z,18.80
2022-10-29T22:16:39.213Z,16.20
2022-10-29T22:19:10.592Z,15.57
2022-10-29T22:21:40.742Z,17.67
2022-10-29T22:24:10.874Z,20.87
2022-10-29T22:26:39.921Z,21.53
2022-10-29T22:29:09.633Z,21.00
2022-10-29T22:31:38.858Z,20.83
2022-10-29T22:34:07.664Z,23.50
2022-10-29T22:36:35.810Z,21.43
2022-10-29T22:39:04.102Z,20.23
2022-10-29T22:41:32.510Z,21.53
2022-10-29T22:44:05.255Z,22.57
2022-10-29T22:46:34.951Z,22.93
2022-10-29T22:49:03.388Z,17.63
2022-10-29T22:51:33.879Z,19.53
2022-10-29T22:54:03.913Z,17.53
2022-10-29T22:56:37.230Z,19.73
2022-10-29T22:59:06.537Z,18.97
2022-10-29T23:01:45.597Z,20.80
2022-10-29T23:04:18.348Z,19.93
2022-10-29T23:06:47.785Z,19.30
2022-10-29T23:09:16.815Z,21.53
2022-10-29T23:11:45.846Z,17.90
2022-10-29T23:14:14.848Z,21.23
2022-10-29T23:16:48.034Z,20.57
2022-10-29T23:19:17.445Z,18.17
2022-10-29T23:21:45.851Z,20.93
2022-10-29T23:24:14.857Z,19.07
2022-10-29T23:26:43.706Z,17.20
2022-10-29T23:29:12.894Z,23.23
2022-10-29T23:31:45.310Z,22.60
2022-10-29T23:34:15.122Z,21.30
2022-10-29T23:36:43.713Z,20.63
2022-10-29T23:39:13.874Z,21.63
2022-10-29T23:41:44.007Z,21.13
2022-10-29T23:44:15.942Z,21.37
2022-10-29T23:46:44.706Z,21.50
2022-10-29T23:49:14.855Z,19.33
2022-10-29T23:51:43.913Z,24.53
2022-10-29T23:54:13.710Z,23.60
2022-10-29T23:56:43.079Z,21.80
2022-10-29T23:59:11.208Z,22.87
